Alton, Iowa
Current Conditions -  °F | °C
As of 6:15 PM on Monday 20 Oct 2014 (Local Time) from KORC Reporting Station
Clear Clear  
Wind Chill: 64°   Ceiling: Unl
Heat Index: 64°   Visibility: 10mi
Dew Point: 37°   Wind: 3mph
Humidity: 37%   Direction: 310°NW
Pressure: 30.04"   Gusts: NA
Location:  42.99°N, 96.01°W
Report Text: KORC 202315Z AUTO 31003KT 10SM CLR 18/03 A3004 RMK AO2
Loading
Personal Weather Stations






























Interactive Weather Map
Tropical Storm Tracking
New forecast layout! Learn more

10-Day Weather Forecast

Advertisements
Track Severe Weather on mobile